sensor_id;sensor_type;location;lat;lon;timestamp;pressure;altitude;pressure_sealevel;temperature;humidity
71903;BME280;59778;50.310;18.780;2022-12-31T00:05:36;98900.47;;;1.94;95.27
71903;BME280;59778;50.310;18.780;2022-12-31T00:20:58;98880.06;;;2.22;97.92
71903;BME280;59778;50.310;18.780;2022-12-31T00:36:22;98892.03;;;2.85;99.84
71903;BME280;59778;50.310;18.780;2022-12-31T00:51:44;98903.91;;;3.39;100.00
71903;BME280;59778;50.310;18.780;2022-12-31T01:07:06;98906.94;;;3.63;99.43
71903;BME280;59778;50.310;18.780;2022-12-31T01:22:28;98892.25;;;3.57;100.00
71903;BME280;59778;50.310;18.780;2022-12-31T01:37:49;98912.28;;;3.63;99.70
71903;BME280;59778;50.310;18.780;2022-12-31T01:53:10;98918.53;;;3.91;100.00
71903;BME280;59778;50.310;18.780;2022-12-31T02:08:33;98918.94;;;4.31;100.00
71903;BME280;59778;50.310;18.780;2022-12-31T02:39:33;98879.47;;;4.85;100.00
71903;BME280;59778;50.310;18.780;2022-12-31T02:55:24;98879.50;;;5.18;100.00
71903;BME280;59778;50.310;18.780;2022-12-31T03:10:50;98902.84;;;5.36;100.00
71903;BME280;59778;50.310;18.780;2022-12-31T03:26:11;98901.50;;;5.65;100.00
71903;BME280;59778;50.310;18.780;2022-12-31T03:41:33;98899.47;;;5.93;100.00
71903;BME280;59778;50.310;18.780;2022-12-31T03:56:54;98926.53;;;6.26;100.00
71903;BME280;59778;50.310;18.780;2022-12-31T04:12:15;98929.00;;;6.77;97.18
71903;BME280;59778;50.310;18.780;2022-12-31T04:27:38;98927.31;;;6.92;95.80
71903;BME280;59778;50.310;18.780;2022-12-31T04:43:00;98964.25;;;6.92;96.38
71903;BME280;59778;50.310;18.780;2022-12-31T04:58:21;98965.13;;;7.00;96.18
71903;BME280;59778;50.310;18.780;2022-12-31T05:13:43;98957.38;;;7.14;96.28
71903;BME280;59778;50.310;18.780;2022-12-31T05:29:04;98924.81;;;7.07;97.42
71903;BME280;59778;50.310;18.780;2022-12-31T05:44:25;98950.97;;;7.15;98.17
71903;BME280;59778;50.310;18.780;2022-12-31T05:59:47;98960.72;;;7.40;97.85
71903;BME280;59778;50.310;18.780;2022-12-31T06:15:08;98969.78;;;7.71;96.03
71903;BME280;59778;50.310;18.780;2022-12-31T06:30:30;98960.69;;;7.72;96.01
71903;BME280;59778;50.310;18.780;2022-12-31T06:45:52;98981.13;;;7.67;96.27
71903;BME280;59778;50.310;18.780;2022-12-31T07:48:26;99037.72;;;7.76;95.82
71903;BME280;59778;50.310;18.780;2022-12-31T08:04:02;99060.66;;;8.04;94.34
71903;BME280;59778;50.310;18.780;2022-12-31T08:19:30;99037.84;;;8.62;91.77
71903;BME280;59778;50.310;18.780;2022-12-31T08:50:38;99060.00;;;9.27;89.10
71903;BME280;59778;50.310;18.780;2022-12-31T09:06:26;99030.97;;;9.36;88.48
71903;BME280;59778;50.310;18.780;2022-12-31T09:21:52;99043.34;;;9.53;88.58
71903;BME280;59778;50.310;18.780;2022-12-31T09:37:17;99030.50;;;9.70;89.06
71903;BME280;59778;50.310;18.780;2022-12-31T10:08:52;99032.09;;;10.16;89.23
71903;BME280;59778;50.310;18.780;2022-12-31T11:26:57;99021.50;;;11.79;82.64
71903;BME280;59778;50.310;18.780;2022-12-31T11:42:43;99000.56;;;11.80;82.71
71903;BME280;59778;50.310;18.780;2022-12-31T11:58:19;99008.47;;;11.75;82.48
71903;BME280;59778;50.310;18.780;2022-12-31T12:13:40;98990.22;;;11.48;83.56
71903;BME280;59778;50.310;18.780;2022-12-31T12:29:30;98984.06;;;11.39;84.03
71903;BME280;59778;50.310;18.780;2022-12-31T12:45:20;98979.66;;;11.38;84.49
71903;BME280;59778;50.310;18.780;2022-12-31T13:31:44;98966.91;;;11.39;84.92
71903;BME280;59778;50.310;18.780;2022-12-31T13:47:14;99006.94;;;11.45;84.22
71903;BME280;59778;50.310;18.780;2022-12-31T14:18:22;99008.41;;;11.47;84.23
71903;BME280;59778;50.310;18.780;2022-12-31T14:34:04;99005.41;;;11.42;84.38
71903;BME280;59778;50.310;18.780;2022-12-31T15:05:13;99012.28;;;11.38;84.56
71903;BME280;59778;50.310;18.780;2022-12-31T15:36:17;99050.69;;;11.50;84.17
71903;BME280;59778;50.310;18.780;2022-12-31T15:51:59;99054.13;;;11.58;83.69
71903;BME280;59778;50.310;18.780;2022-12-31T16:07:22;99037.16;;;11.56;83.76
71903;BME280;59778;50.310;18.780;2022-12-31T16:22:50;99052.69;;;11.62;83.45
71903;BME280;59778;50.310;18.780;2022-12-31T16:38:14;99061.06;;;11.61;83.50
71903;BME280;59778;50.310;18.780;2022-12-31T16:53:36;99072.84;;;11.68;82.59
71903;BME280;59778;50.310;18.780;2022-12-31T17:09:13;99080.16;;;12.10;80.53
71903;BME280;59778;50.310;18.780;2022-12-31T17:24:37;99073.63;;;12.04;80.59
71903;BME280;59778;50.310;18.780;2022-12-31T17:39:58;99100.84;;;12.04;80.21
71903;BME280;59778;50.310;18.780;2022-12-31T17:55:24;99096.47;;;12.10;79.75
71903;BME280;59778;50.310;18.780;2022-12-31T18:10:45;99096.56;;;11.95;80.08
71903;BME280;59778;50.310;18.780;2022-12-31T18:26:16;99106.56;;;11.88;80.05
71903;BME280;59778;50.310;18.780;2022-12-31T18:41:45;99123.88;;;11.80;80.00
71903;BME280;59778;50.310;18.780;2022-12-31T18:57:11;99129.75;;;11.84;79.56
71903;BME280;59778;50.310;18.780;2022-12-31T19:12:34;99130.84;;;11.90;79.27
71903;BME280;59778;50.310;18.780;2022-12-31T19:27:56;99128.06;;;11.83;78.54
71903;BME280;59778;50.310;18.780;2022-12-31T19:43:20;99135.00;;;11.86;78.18
71903;BME280;59778;50.310;18.780;2022-12-31T19:58:41;99139.41;;;12.08;76.96
71903;BME280;59778;50.310;18.780;2022-12-31T20:14:03;99156.09;;;12.26;76.02
71903;BME280;59778;50.310;18.780;2022-12-31T20:29:24;99121.84;;;12.38;74.90
71903;BME280;59778;50.310;18.780;2022-12-31T20:44:45;99131.75;;;12.18;75.33
71903;BME280;59778;50.310;18.780;2022-12-31T21:00:07;99133.84;;;11.95;75.57
71903;BME280;59778;50.310;18.780;2022-12-31T21:15:29;99130.47;;;11.93;75.40
71903;BME280;59778;50.310;18.780;2022-12-31T21:30:56;99144.53;;;11.96;74.88
71903;BME280;59778;50.310;18.780;2022-12-31T21:46:18;99155.34;;;11.90;74.09
71903;BME280;59778;50.310;18.780;2022-12-31T22:01:39;99171.34;;;11.78;74.53
71903;BME280;59778;50.310;18.780;2022-12-31T22:17:19;99177.72;;;11.70;74.55
71903;BME280;59778;50.310;18.780;2022-12-31T22:32:40;99172.34;;;11.56;75.08
71903;BME280;59778;50.310;18.780;2022-12-31T22:48:02;99182.78;;;11.38;75.73
71903;BME280;59778;50.310;18.780;2022-12-31T23:03:23;99176.41;;;11.30;75.58
71903;BME280;59778;50.310;18.780;2022-12-31T23:18:44;99187.13;;;11.17;75.68
71903;BME280;59778;50.310;18.780;2022-12-31T23:34:24;99190.41;;;11.13;75.98
71903;BME280;59778;50.310;18.780;2022-12-31T23:49:46;99187.78;;;11.05;75.94
